createdAt,value
2022-07-29T00:00:10.000Z,16.81
2022-07-29T00:01:10.000Z,16.77
2022-07-29T00:02:10.000Z,16.77
2022-07-29T00:03:10.000Z,16.78
2022-07-29T00:04:10.000Z,16.77
2022-07-29T00:05:10.000Z,16.78
2022-07-29T00:06:10.000Z,16.78
2022-07-29T00:07:10.000Z,16.75
2022-07-29T00:08:09.000Z,16.78
2022-07-29T00:09:09.000Z,16.75
2022-07-29T00:10:09.000Z,16.72
2022-07-29T00:11:09.000Z,16.75
2022-07-29T00:12:09.000Z,16.70
2022-07-29T00:13:09.000Z,16.69
2022-07-29T00:14:09.000Z,16.70
2022-07-29T00:15:09.000Z,16.73
2022-07-29T00:16:09.000Z,16.70
2022-07-29T00:17:09.000Z,16.73
2022-07-29T00:18:09.000Z,16.73
2022-07-29T00:19:09.000Z,16.73
2022-07-29T00:20:09.000Z,16.69
2022-07-29T00:21:09.000Z,16.70
2022-07-29T00:22:09.000Z,16.69
2022-07-29T00:23:09.000Z,16.69
2022-07-29T00:24:09.000Z,16.69
2022-07-29T00:25:09.000Z,16.70
2022-07-29T00:26:09.000Z,16.69
2022-07-29T00:27:09.000Z,16.70
2022-07-29T00:28:09.000Z,16.67
2022-07-29T00:29:09.000Z,16.72
2022-07-29T00:30:09.000Z,16.72
2022-07-29T00:31:09.000Z,16.69
2022-07-29T00:32:09.000Z,16.69
2022-07-29T00:33:09.000Z,16.72
2022-07-29T00:34:09.000Z,16.70
2022-07-29T00:35:09.000Z,16.67
2022-07-29T00:35:09.000Z,16.67
2022-07-29T00:36:09.000Z,16.69
2022-07-29T00:36:09.000Z,16.69
2022-07-29T00:37:09.000Z,16.69
2022-07-29T00:37:09.000Z,16.69
2022-07-29T00:38:09.000Z,16.67
2022-07-29T00:38:09.000Z,16.67
2022-07-29T00:39:09.000Z,16.67
2022-07-29T00:39:09.000Z,16.67
2022-07-29T00:40:09.000Z,16.67
2022-07-29T00:41:09.000Z,16.65
2022-07-29T00:42:09.000Z,16.67
2022-07-29T00:43:09.000Z,16.69
2022-07-29T00:44:09.000Z,16.70
2022-07-29T00:45:09.000Z,16.69
2022-07-29T00:46:09.000Z,16.69
2022-07-29T00:47:09.000Z,16.70
2022-07-29T00:48:09.000Z,16.66
2022-07-29T00:49:09.000Z,16.69
2022-07-29T00:50:09.000Z,16.69
2022-07-29T00:51:09.000Z,16.65
2022-07-29T00:52:09.000Z,16.67
2022-07-29T00:53:09.000Z,16.70
2022-07-29T00:54:09.000Z,16.66
2022-07-29T00:55:09.000Z,16.65
2022-07-29T00:56:09.000Z,16.67
2022-07-29T00:57:09.000Z,16.66
2022-07-29T00:58:09.000Z,16.65
2022-07-29T00:59:09.000Z,16.67
2022-07-29T01:00:09.000Z,16.65
2022-07-29T01:01:09.000Z,16.65
2022-07-29T01:02:09.000Z,16.65
2022-07-29T01:03:09.000Z,16.65
2022-07-29T01:04:09.000Z,16.69
2022-07-29T01:05:09.000Z,16.66
2022-07-29T01:06:09.000Z,16.67
2022-07-29T01:07:09.000Z,16.66
2022-07-29T01:08:09.000Z,16.63
2022-07-29T01:09:09.000Z,16.65
2022-07-29T01:10:09.000Z,16.63
2022-07-29T01:11:09.000Z,16.62
2022-07-29T01:12:09.000Z,16.59
2022-07-29T01:13:09.000Z,16.57
2022-07-29T01:14:09.000Z,16.55
2022-07-29T01:15:09.000Z,16.57
2022-07-29T01:16:09.000Z,16.57
2022-07-29T01:17:09.000Z,16.55
2022-07-29T01:18:09.000Z,16.54
2022-07-29T01:19:08.000Z,16.52
2022-07-29T01:20:08.000Z,16.52
2022-07-29T01:21:08.000Z,16.52
2022-07-29T01:22:08.000Z,16.51
2022-07-29T01:23:08.000Z,16.51
2022-07-29T01:24:08.000Z,16.50
2022-07-29T01:25:08.000Z,16.45
2022-07-29T01:26:08.000Z,16.44
2022-07-29T01:27:08.000Z,16.45
2022-07-29T01:28:08.000Z,16.45
2022-07-29T01:29:08.000Z,16.47
2022-07-29T01:30:08.000Z,16.45
2022-07-29T01:31:08.000Z,16.42
2022-07-29T01:32:08.000Z,16.41
2022-07-29T01:33:08.000Z,16.42
2022-07-29T01:34:08.000Z,16.42
2022-07-29T01:35:08.000Z,16.41
2022-07-29T01:36:08.000Z,16.41
2022-07-29T01:37:08.000Z,16.44
2022-07-29T01:38:08.000Z,16.41
2022-07-29T01:39:08.000Z,16.40
2022-07-29T01:40:08.000Z,16.40
2022-07-29T01:41:08.000Z,16.40
2022-07-29T01:42:08.000Z,16.36
2022-07-29T01:43:08.000Z,16.42
2022-07-29T01:44:08.000Z,16.41
2022-07-29T01:45:08.000Z,16.36
2022-07-29T01:46:08.000Z,16.40
2022-07-29T01:47:08.000Z,16.36
2022-07-29T01:48:08.000Z,16.36
2022-07-29T01:49:08.000Z,16.37
2022-07-29T01:50:08.000Z,16.40
2022-07-29T01:51:08.000Z,16.40
2022-07-29T01:52:08.000Z,16.41
2022-07-29T01:53:08.000Z,16.36
2022-07-29T01:54:08.000Z,16.36
2022-07-29T01:55:08.000Z,16.40
2022-07-29T01:56:08.000Z,16.37
2022-07-29T01:57:08.000Z,16.34
2022-07-29T01:58:08.000Z,16.37
2022-07-29T01:59:08.000Z,16.40
2022-07-29T02:00:08.000Z,16.40
2022-07-29T02:01:08.000Z,16.37
2022-07-29T02:02:08.000Z,16.37
2022-07-29T02:03:08.000Z,16.37
2022-07-29T02:04:08.000Z,16.34
2022-07-29T02:05:08.000Z,16.33
2022-07-29T02:06:08.000Z,16.34
2022-07-29T02:07:08.000Z,16.34
2022-07-29T02:08:08.000Z,16.34
2022-07-29T02:09:08.000Z,16.32
2022-07-29T02:10:08.000Z,16.34
2022-07-29T02:11:08.000Z,16.34
2022-07-29T02:12:08.000Z,16.32
2022-07-29T02:13:08.000Z,16.32
2022-07-29T02:14:08.000Z,16.32
2022-07-29T02:15:08.000Z,16.30
2022-07-29T02:16:08.000Z,16.33
2022-07-29T02:17:08.000Z,16.36
2022-07-29T02:18:08.000Z,16.30
2022-07-29T02:19:08.000Z,16.32
2022-07-29T02:20:08.000Z,16.33
2022-07-29T02:21:08.000Z,16.33
2022-07-29T02:22:08.000Z,16.29
2022-07-29T02:23:08.000Z,16.27
2022-07-29T02:24:08.000Z,16.30
2022-07-29T02:25:08.000Z,16.29
2022-07-29T02:26:08.000Z,16.27
2022-07-29T02:27:08.000Z,16.26
2022-07-29T02:28:08.000Z,16.27
2022-07-29T02:29:08.000Z,16.26
2022-07-29T02:30:08.000Z,16.25
2022-07-29T02:31:07.000Z,16.25
2022-07-29T02:32:07.000Z,16.25
2022-07-29T02:33:07.000Z,16.25
2022-07-29T02:34:07.000Z,16.22
2022-07-29T02:35:07.000Z,16.18
2022-07-29T02:36:07.000Z,16.17
2022-07-29T02:37:07.000Z,16.18
2022-07-29T02:38:07.000Z,16.22
2022-07-29T02:39:07.000Z,16.17
2022-07-29T02:40:07.000Z,16.17
2022-07-29T02:41:07.000Z,16.17
2022-07-29T02:42:07.000Z,16.17
2022-07-29T02:43:07.000Z,16.16
2022-07-29T02:44:07.000Z,16.16
2022-07-29T02:45:07.000Z,16.17
2022-07-29T02:46:07.000Z,16.16
2022-07-29T02:47:07.000Z,16.14
2022-07-29T02:48:07.000Z,16.10
2022-07-29T02:49:07.000Z,16.14
2022-07-29T02:50:07.000Z,16.13
2022-07-29T02:51:07.000Z,16.11
2022-07-29T02:52:07.000Z,16.11
2022-07-29T02:53:07.000Z,16.14
2022-07-29T02:54:07.000Z,16.10
2022-07-29T02:55:07.000Z,16.08
2022-07-29T02:56:07.000Z,16.04
2022-07-29T02:57:07.000Z,16.06
2022-07-29T02:58:07.000Z,16.07
2022-07-29T02:59:07.000Z,16.06
2022-07-29T03:00:07.000Z,16.04
2022-07-29T03:01:07.000Z,16.06
2022-07-29T03:02:07.000Z,16.04
2022-07-29T03:03:07.000Z,16.04
2022-07-29T03:04:07.000Z,16.04
2022-07-29T03:05:07.000Z,16.03
2022-07-29T03:06:07.000Z,16.03
2022-07-29T03:07:07.000Z,16.01
2022-07-29T03:08:07.000Z,15.98
2022-07-29T03:09:07.000Z,16.03
2022-07-29T03:10:07.000Z,15.98
2022-07-29T03:11:07.000Z,15.98
2022-07-29T03:12:07.000Z,15.98
2022-07-29T03:13:07.000Z,15.96
2022-07-29T03:14:07.000Z,15.98
2022-07-29T03:15:07.000Z,15.96
2022-07-29T03:16:07.000Z,15.95
2022-07-29T03:17:07.000Z,15.95
2022-07-29T03:18:07.000Z,15.96
2022-07-29T03:19:07.000Z,15.93
2022-07-29T03:20:07.000Z,15.93
2022-07-29T03:21:07.000Z,15.95
2022-07-29T03:22:07.000Z,15.93
2022-07-29T03:23:07.000Z,15.93
2022-07-29T03:24:07.000Z,15.93
2022-07-29T03:25:07.000Z,15.92
2022-07-29T03:25:07.000Z,15.92
2022-07-29T03:26:07.000Z,15.93
2022-07-29T03:26:07.000Z,15.93
2022-07-29T03:27:07.000Z,15.95
2022-07-29T03:27:07.000Z,15.95
2022-07-29T03:28:07.000Z,15.92
2022-07-29T03:28:07.000Z,15.92
2022-07-29T03:29:07.000Z,15.89
2022-07-29T03:29:07.000Z,15.89
2022-07-29T03:30:07.000Z,15.89
2022-07-29T03:31:07.000Z,15.89
2022-07-29T03:32:07.000Z,15.89
2022-07-29T03:33:07.000Z,15.91
2022-07-29T03:34:07.000Z,15.89
2022-07-29T03:35:07.000Z,15.88
2022-07-29T03:36:07.000Z,15.89
2022-07-29T03:37:07.000Z,15.86
2022-07-29T03:38:07.000Z,15.86
2022-07-29T03:39:07.000Z,15.85
2022-07-29T03:40:07.000Z,15.81
2022-07-29T03:41:07.000Z,15.84
2022-07-29T03:42:07.000Z,15.80
2022-07-29T03:43:06.000Z,15.80
2022-07-29T03:44:06.000Z,15.77
2022-07-29T03:45:06.000Z,15.77
2022-07-29T03:46:06.000Z,15.77
2022-07-29T03:47:06.000Z,15.74
2022-07-29T03:48:06.000Z,15.76
2022-07-29T03:49:06.000Z,15.76
2022-07-29T03:50:06.000Z,15.73
2022-07-29T03:51:06.000Z,15.73
2022-07-29T03:52:06.000Z,15.71
2022-07-29T03:53:06.000Z,15.68
2022-07-29T03:54:06.000Z,15.68
2022-07-29T03:55:06.000Z,15.68
2022-07-29T03:56:06.000Z,15.66
2022-07-29T03:57:06.000Z,15.66
2022-07-29T03:58:06.000Z,15.64
2022-07-29T03:59:06.000Z,15.62
2022-07-29T04:00:06.000Z,15.64
2022-07-29T04:01:06.000Z,15.62
2022-07-29T04:02:06.000Z,15.60
2022-07-29T04:03:06.000Z,15.66
2022-07-29T04:04:06.000Z,15.59
2022-07-29T04:05:06.000Z,15.59
2022-07-29T04:06:06.000Z,15.62
2022-07-29T04:07:06.000Z,15.60
2022-07-29T04:08:06.000Z,15.64
2022-07-29T04:09:06.000Z,15.64
2022-07-29T04:10:06.000Z,15.62
2022-07-29T04:11:06.000Z,15.67
2022-07-29T04:12:06.000Z,15.67
2022-07-29T04:13:06.000Z,15.60
2022-07-29T04:14:06.000Z,15.64
2022-07-29T04:15:06.000Z,15.64
2022-07-29T04:16:06.000Z,15.64
2022-07-29T04:17:06.000Z,15.66
2022-07-29T04:18:06.000Z,15.64
2022-07-29T04:19:06.000Z,15.66
2022-07-29T04:20:06.000Z,15.62
2022-07-29T04:21:06.000Z,15.66
2022-07-29T04:22:06.000Z,15.64
2022-07-29T04:23:06.000Z,15.67
2022-07-29T04:24:06.000Z,15.70
2022-07-29T04:25:06.000Z,15.67
2022-07-29T04:26:06.000Z,15.67
2022-07-29T04:27:06.000Z,15.68
2022-07-29T04:28:06.000Z,15.71
2022-07-29T04:29:06.000Z,15.68
2022-07-29T04:30:06.000Z,15.71
2022-07-29T04:31:06.000Z,15.73
2022-07-29T04:32:06.000Z,15.76
2022-07-29T04:33:06.000Z,15.76
2022-07-29T04:34:06.000Z,15.77
2022-07-29T04:35:06.000Z,15.78
2022-07-29T04:36:06.000Z,15.81
2022-07-29T04:37:06.000Z,15.84
2022-07-29T04:38:06.000Z,15.80
2022-07-29T04:39:06.000Z,15.85
2022-07-29T04:40:06.000Z,15.88
2022-07-29T04:41:06.000Z,15.88
2022-07-29T04:42:06.000Z,15.88
2022-07-29T04:43:06.000Z,15.88
2022-07-29T04:44:06.000Z,15.93
2022-07-29T04:45:06.000Z,15.91
2022-07-29T04:46:06.000Z,15.93
2022-07-29T04:47:06.000Z,15.93
2022-07-29T04:48:06.000Z,15.95
2022-07-29T04:49:06.000Z,15.99
2022-07-29T04:50:06.000Z,15.96
2022-07-29T04:51:06.000Z,15.99
2022-07-29T04:52:06.000Z,16.01
2022-07-29T04:53:06.000Z,16.03
2022-07-29T04:54:06.000Z,16.03
2022-07-29T04:55:05.000Z,16.07
2022-07-29T04:56:05.000Z,16.08
2022-07-29T04:57:05.000Z,16.11
2022-07-29T04:58:05.000Z,16.14
2022-07-29T04:59:05.000Z,16.11
2022-07-29T05:00:05.000Z,16.14
2022-07-29T05:01:05.000Z,16.14
2022-07-29T05:02:05.000Z,16.17
2022-07-29T05:03:05.000Z,16.22
2022-07-29T05:04:05.000Z,16.23
2022-07-29T05:05:05.000Z,16.27
2022-07-29T05:06:05.000Z,16.27
2022-07-29T05:07:05.000Z,16.33
2022-07-29T05:08:05.000Z,16.33
2022-07-29T05:09:05.000Z,16.40
2022-07-29T05:10:05.000Z,16.40
2022-07-29T05:11:05.000Z,16.41
2022-07-29T05:12:05.000Z,16.41
2022-07-29T05:13:05.000Z,16.42
2022-07-29T05:14:05.000Z,16.50
2022-07-29T05:15:13.000Z,16.51
2022-07-29T05:16:05.000Z,16.51
2022-07-29T05:17:05.000Z,16.57
2022-07-29T05:18:05.000Z,16.59
2022-07-29T05:19:05.000Z,16.62
2022-07-29T05:20:05.000Z,16.65
2022-07-29T05:21:05.000Z,16.67
2022-07-29T05:22:05.000Z,16.69
2022-07-29T05:23:05.000Z,16.75
2022-07-29T05:24:05.000Z,16.73
2022-07-29T05:25:05.000Z,16.80
2022-07-29T05:26:05.000Z,16.80
2022-07-29T05:27:05.000Z,16.77
2022-07-29T05:28:05.000Z,16.80
2022-07-29T05:29:05.000Z,16.82
2022-07-29T05:30:05.000Z,16.87
2022-07-29T05:31:05.000Z,16.92
2022-07-29T05:32:05.000Z,16.96
2022-07-29T05:33:05.000Z,16.98
2022-07-29T05:34:05.000Z,17.03
2022-07-29T05:35:05.000Z,17.07
2022-07-29T05:36:05.000Z,17.14
2022-07-29T05:37:05.000Z,17.12
2022-07-29T05:38:05.000Z,17.15
2022-07-29T05:39:05.000Z,17.18
2022-07-29T05:40:05.000Z,17.22
2022-07-29T05:41:05.000Z,17.32
2022-07-29T05:42:05.000Z,17.28
2022-07-29T05:43:05.000Z,17.35
2022-07-29T05:44:05.000Z,17.36
2022-07-29T05:45:05.000Z,17.40
2022-07-29T05:46:05.000Z,17.35
2022-07-29T05:47:05.000Z,17.38
2022-07-29T05:48:05.000Z,17.42
2022-07-29T05:49:05.000Z,17.42
2022-07-29T05:50:05.000Z,17.38
2022-07-29T05:51:05.000Z,17.40
2022-07-29T05:52:05.000Z,17.42
2022-07-29T05:53:05.000Z,17.42
2022-07-29T05:54:05.000Z,17.49
2022-07-29T05:55:05.000Z,17.47
2022-07-29T05:56:05.000Z,17.53
2022-07-29T05:57:05.000Z,17.57
2022-07-29T05:58:05.000Z,17.57
2022-07-29T05:59:05.000Z,17.58
2022-07-29T06:00:05.000Z,17.60
2022-07-29T06:01:05.000Z,17.65
2022-07-29T06:02:05.000Z,17.66
2022-07-29T06:03:05.000Z,17.65
2022-07-29T06:04:05.000Z,17.70
2022-07-29T06:05:05.000Z,17.74
2022-07-29T06:06:05.000Z,17.74
2022-07-29T06:07:04.000Z,17.77
2022-07-29T06:08:04.000Z,17.76
2022-07-29T06:09:04.000Z,17.74
2022-07-29T06:10:04.000Z,17.76
2022-07-29T06:11:04.000Z,17.77
2022-07-29T06:12:04.000Z,17.76
2022-07-29T06:13:04.000Z,17.79
2022-07-29T06:14:04.000Z,17.77
2022-07-29T06:15:04.000Z,17.80
2022-07-29T06:16:04.000Z,17.84
2022-07-29T06:17:04.000Z,17.86
2022-07-29T06:18:04.000Z,17.91
2022-07-29T06:19:04.000Z,17.92
2022-07-29T06:20:04.000Z,17.94
2022-07-29T06:21:04.000Z,17.96
2022-07-29T06:22:04.000Z,18.02
2022-07-29T06:23:04.000Z,18.04
2022-07-29T06:24:04.000Z,18.07
2022-07-29T06:25:04.000Z,18.11
2022-07-29T06:26:04.000Z,18.19
2022-07-29T06:27:04.000Z,18.23
2022-07-29T06:28:04.000Z,18.28
2022-07-29T06:29:04.000Z,18.31
2022-07-29T06:30:04.000Z,18.36
2022-07-29T06:30:04.000Z,18.36
2022-07-29T06:31:04.000Z,18.35
2022-07-29T06:31:04.000Z,18.35
2022-07-29T06:32:04.000Z,18.42
2022-07-29T06:32:04.000Z,18.42
2022-07-29T06:33:04.000Z,18.41
2022-07-29T06:33:04.000Z,18.41
2022-07-29T06:34:04.000Z,18.39
2022-07-29T06:34:04.000Z,18.39
2022-07-29T06:35:04.000Z,18.38
2022-07-29T06:36:04.000Z,18.38
2022-07-29T06:37:04.000Z,18.38
2022-07-29T06:38:04.000Z,18.38
2022-07-29T06:39:04.000Z,18.39
2022-07-29T06:40:04.000Z,18.39
2022-07-29T06:41:04.000Z,18.47
2022-07-29T06:42:04.000Z,18.50
2022-07-29T06:43:04.000Z,18.62
2022-07-29T06:44:04.000Z,18.66
2022-07-29T06:45:04.000Z,18.72
2022-07-29T06:46:04.000Z,18.78
2022-07-29T06:47:04.000Z,18.84
2022-07-29T06:48:04.000Z,18.90
2022-07-29T06:49:04.000Z,18.97
2022-07-29T06:50:04.000Z,19.02
2022-07-29T06:50:04.000Z,19.02
2022-07-29T06:51:04.000Z,19.06
2022-07-29T06:51:04.000Z,19.06
2022-07-29T06:52:04.000Z,19.15
2022-07-29T06:52:04.000Z,19.15
2022-07-29T06:53:04.000Z,19.16
2022-07-29T06:53:04.000Z,19.16
2022-07-29T06:54:04.000Z,19.23
2022-07-29T06:54:04.000Z,19.23
2022-07-29T06:55:04.000Z,19.31
2022-07-29T06:56:04.000Z,19.39
2022-07-29T06:57:04.000Z,19.43
2022-07-29T06:58:04.000Z,19.43
2022-07-29T06:59:04.000Z,19.47
2022-07-29T07:00:04.000Z,19.57
2022-07-29T07:01:04.000Z,19.68
2022-07-29T07:02:04.000Z,19.68
2022-07-29T07:03:04.000Z,19.75
2022-07-29T07:04:04.000Z,19.80
2022-07-29T07:05:04.000Z,19.89
2022-07-29T07:06:04.000Z,19.95
2022-07-29T07:07:04.000Z,20.02
2022-07-29T07:08:04.000Z,20.12
2022-07-29T07:09:04.000Z,20.17
2022-07-29T07:10:04.000Z,20.20
2022-07-29T07:11:04.000Z,20.22
2022-07-29T07:12:04.000Z,20.31
2022-07-29T07:13:04.000Z,20.33
2022-07-29T07:14:04.000Z,20.40
2022-07-29T07:15:04.000Z,20.44
2022-07-29T07:16:04.000Z,20.48
2022-07-29T07:17:04.000Z,20.50
2022-07-29T07:18:04.000Z,20.57
2022-07-29T07:19:03.000Z,20.51
2022-07-29T07:20:03.000Z,20.56
2022-07-29T07:21:03.000Z,20.61
2022-07-29T07:22:03.000Z,20.71
2022-07-29T07:23:03.000Z,20.78
2022-07-29T07:24:03.000Z,20.83
2022-07-29T07:25:03.000Z,20.93
2022-07-29T07:26:03.000Z,20.96
2022-07-29T07:27:03.000Z,20.98
2022-07-29T07:28:03.000Z,21.01
2022-07-29T07:29:03.000Z,21.08
2022-07-29T07:30:03.000Z,21.09
2022-07-29T07:31:03.000Z,21.13
2022-07-29T07:32:03.000Z,21.16
2022-07-29T07:33:03.000Z,21.13
2022-07-29T07:34:03.000Z,21.13
2022-07-29T07:35:03.000Z,21.12
2022-07-29T07:35:03.000Z,21.12
2022-07-29T07:36:03.000Z,21.12
2022-07-29T07:36:03.000Z,21.12
2022-07-29T07:37:03.000Z,21.18
2022-07-29T07:37:03.000Z,21.18
2022-07-29T07:38:03.000Z,21.27
2022-07-29T07:38:03.000Z,21.27
2022-07-29T07:39:03.000Z,21.33
2022-07-29T07:39:03.000Z,21.33
2022-07-29T07:40:03.000Z,21.40
2022-07-29T07:41:03.000Z,21.48
2022-07-29T07:42:03.000Z,21.55
2022-07-29T07:43:03.000Z,21.59
2022-07-29T07:44:03.000Z,21.70
2022-07-29T07:45:03.000Z,21.79
2022-07-29T07:45:03.000Z,21.79
2022-07-29T07:46:03.000Z,21.96
2022-07-29T07:46:03.000Z,21.96
2022-07-29T07:47:03.000Z,22.04
2022-07-29T07:47:03.000Z,22.04
2022-07-29T07:48:03.000Z,22.15
2022-07-29T07:48:03.000Z,22.15
2022-07-29T07:49:03.000Z,22.31
2022-07-29T07:49:03.000Z,22.31
2022-07-29T07:50:03.000Z,22.54
2022-07-29T07:51:03.000Z,22.76
2022-07-29T07:52:03.000Z,22.99
2022-07-29T07:53:03.000Z,23.21
2022-07-29T07:54:03.000Z,23.39
2022-07-29T07:55:03.000Z,23.62
2022-07-29T07:56:03.000Z,24.02
2022-07-29T07:57:03.000Z,24.45
2022-07-29T07:58:03.000Z,24.82
2022-07-29T07:59:03.000Z,25.05
2022-07-29T08:00:03.000Z,25.19
2022-07-29T08:01:03.000Z,25.27
2022-07-29T08:02:03.000Z,25.35
2022-07-29T08:03:03.000Z,25.45
2022-07-29T08:04:03.000Z,25.48
2022-07-29T08:05:03.000Z,25.66
2022-07-29T08:06:03.000Z,25.89
2022-07-29T08:07:03.000Z,26.12
2022-07-29T08:08:03.000Z,26.36
2022-07-29T08:09:03.000Z,26.57
2022-07-29T08:10:03.000Z,26.73
2022-07-29T08:11:03.000Z,27.02
2022-07-29T08:12:03.000Z,27.15
2022-07-29T08:13:03.000Z,27.11
2022-07-29T08:14:03.000Z,27.20
2022-07-29T08:15:03.000Z,27.39
2022-07-29T08:16:03.000Z,27.68
2022-07-29T08:17:03.000Z,27.49
2022-07-29T08:18:03.000Z,27.25
2022-07-29T08:19:03.000Z,27.33
2022-07-29T08:20:03.000Z,27.33
2022-07-29T08:20:03.000Z,27.33
2022-07-29T08:21:03.000Z,27.40
2022-07-29T08:21:03.000Z,27.40
2022-07-29T08:22:03.000Z,27.63
2022-07-29T08:22:03.000Z,27.63
2022-07-29T08:23:03.000Z,27.96
2022-07-29T08:23:03.000Z,27.96
2022-07-29T08:24:03.000Z,28.25
2022-07-29T08:24:03.000Z,28.25
2022-07-29T08:25:03.000Z,28.48
2022-07-29T08:26:03.000Z,28.62
2022-07-29T08:27:03.000Z,28.64
2022-07-29T08:28:03.000Z,28.73
2022-07-29T08:29:03.000Z,28.87
2022-07-29T08:30:03.000Z,28.98
2022-07-29T08:31:02.000Z,29.20
2022-07-29T08:32:02.000Z,29.36
2022-07-29T08:33:02.000Z,29.44
2022-07-29T08:34:02.000Z,29.47
2022-07-29T08:35:02.000Z,29.62
2022-07-29T08:36:02.000Z,29.73
2022-07-29T08:37:02.000Z,29.71
2022-07-29T08:38:02.000Z,29.52
2022-07-29T08:39:02.000Z,29.49
2022-07-29T08:40:02.000Z,29.47
2022-07-29T08:41:02.000Z,29.26
2022-07-29T08:42:02.000Z,29.41
2022-07-29T08:43:02.000Z,29.62
2022-07-29T08:44:02.000Z,29.67
2022-07-29T08:45:02.000Z,29.14
2022-07-29T08:46:02.000Z,28.62
2022-07-29T08:47:02.000Z,28.33
2022-07-29T08:48:02.000Z,28.23
2022-07-29T08:49:02.000Z,28.18
2022-07-29T08:50:02.000Z,28.25
2022-07-29T08:51:02.000Z,28.28
2022-07-29T08:52:02.000Z,28.36
2022-07-29T08:53:02.000Z,28.40
2022-07-29T08:54:02.000Z,28.54
2022-07-29T08:55:02.000Z,28.65
2022-07-29T08:56:02.000Z,28.72
2022-07-29T08:57:02.000Z,29.00
2022-07-29T08:58:02.000Z,29.26
2022-07-29T08:59:02.000Z,29.39
2022-07-29T09:00:02.000Z,29.10
2022-07-29T09:01:02.000Z,28.82
2022-07-29T09:02:02.000Z,28.69
2022-07-29T09:03:02.000Z,28.62
2022-07-29T09:04:02.000Z,28.46
2022-07-29T09:05:02.000Z,28.36
2022-07-29T09:06:02.000Z,28.46
2022-07-29T09:07:02.000Z,28.70
2022-07-29T09:08:02.000Z,28.67
2022-07-29T09:09:02.000Z,28.69
2022-07-29T09:10:02.000Z,28.55
2022-07-29T09:11:02.000Z,28.45
2022-07-29T09:12:02.000Z,28.51
2022-07-29T09:13:02.000Z,28.52
2022-07-29T09:14:02.000Z,28.52
2022-07-29T09:15:02.000Z,28.30
2022-07-29T09:16:02.000Z,28.13
2022-07-29T09:17:02.000Z,28.06
2022-07-29T09:18:02.000Z,28.03
2022-07-29T09:19:02.000Z,28.18
2022-07-29T09:20:02.000Z,27.84
2022-07-29T09:21:02.000Z,27.69
2022-07-29T09:22:02.000Z,27.81
2022-07-29T09:23:02.000Z,27.99
2022-07-29T09:24:02.000Z,28.05
2022-07-29T09:25:02.000Z,28.11
2022-07-29T09:26:02.000Z,28.15
2022-07-29T09:27:02.000Z,28.30
2022-07-29T09:28:02.000Z,28.58
2022-07-29T09:29:02.000Z,28.73
2022-07-29T09:30:02.000Z,28.52
2022-07-29T09:31:02.000Z,28.28
2022-07-29T09:32:02.000Z,28.33
2022-07-29T09:33:02.000Z,28.57
2022-07-29T09:34:02.000Z,28.76
2022-07-29T09:35:02.000Z,29.00
2022-07-29T09:36:02.000Z,29.11
2022-07-29T09:37:02.000Z,29.23
2022-07-29T09:38:02.000Z,29.33
2022-07-29T09:39:02.000Z,29.39
2022-07-29T09:40:02.000Z,29.45
2022-07-29T09:41:02.000Z,29.49
2022-07-29T09:42:02.000Z,29.45
2022-07-29T09:43:02.000Z,29.15
2022-07-29T09:44:02.000Z,28.87
2022-07-29T09:45:01.000Z,28.97
2022-07-29T09:46:01.000Z,29.14
2022-07-29T09:47:01.000Z,29.29
2022-07-29T09:48:01.000Z,29.57
2022-07-29T09:49:01.000Z,29.58
2022-07-29T09:50:01.000Z,29.51
2022-07-29T09:50:01.000Z,29.51
2022-07-29T09:51:01.000Z,29.52
2022-07-29T09:51:01.000Z,29.52
2022-07-29T09:52:01.000Z,29.55
2022-07-29T09:52:01.000Z,29.55
2022-07-29T09:53:01.000Z,29.58
2022-07-29T09:53:01.000Z,29.58
2022-07-29T09:54:01.000Z,29.69
2022-07-29T09:54:01.000Z,29.69
2022-07-29T09:55:01.000Z,29.66
2022-07-29T09:56:01.000Z,29.51
2022-07-29T09:57:01.000Z,29.44
2022-07-29T09:58:01.000Z,29.48
2022-07-29T09:59:01.000Z,29.63
2022-07-29T10:00:01.000Z,29.74
2022-07-29T10:01:01.000Z,29.82
2022-07-29T10:02:01.000Z,29.67
2022-07-29T10:03:01.000Z,29.64
2022-07-29T10:04:01.000Z,29.81
2022-07-29T10:05:01.000Z,30.03
2022-07-29T10:06:01.000Z,30.28
2022-07-29T10:07:01.000Z,30.36
2022-07-29T10:08:01.000Z,30.40
2022-07-29T10:09:01.000Z,30.38
2022-07-29T10:10:01.000Z,30.36
2022-07-29T10:11:01.000Z,30.25
2022-07-29T10:12:01.000Z,30.32
2022-07-29T10:13:01.000Z,30.32
2022-07-29T10:14:01.000Z,30.23
2022-07-29T10:15:01.000Z,30.25
2022-07-29T10:15:01.000Z,30.25
2022-07-29T10:16:01.000Z,30.28
2022-07-29T10:16:01.000Z,30.28
2022-07-29T10:17:01.000Z,30.21
2022-07-29T10:17:01.000Z,30.21
2022-07-29T10:18:01.000Z,30.03
2022-07-29T10:18:01.000Z,30.03
2022-07-29T10:19:01.000Z,29.84
2022-07-29T10:19:01.000Z,29.84
2022-07-29T10:20:01.000Z,29.62
2022-07-29T10:21:01.000Z,29.63
2022-07-29T10:22:01.000Z,29.60
2022-07-29T10:23:01.000Z,29.60
2022-07-29T10:24:01.000Z,29.55
2022-07-29T10:25:01.000Z,29.67
2022-07-29T10:26:01.000Z,29.69
2022-07-29T10:27:01.000Z,29.58
2022-07-29T10:28:01.000Z,29.69
2022-07-29T10:29:01.000Z,29.97
2022-07-29T10:30:01.000Z,30.26
2022-07-29T10:31:01.000Z,30.40
2022-07-29T10:32:01.000Z,30.56
2022-07-29T10:33:01.000Z,30.76
2022-07-29T10:34:01.000Z,30.91
2022-07-29T10:35:01.000Z,30.91
2022-07-29T10:36:01.000Z,30.93
2022-07-29T10:37:01.000Z,30.96
2022-07-29T10:38:01.000Z,30.82
2022-07-29T10:39:01.000Z,30.81
2022-07-29T10:40:01.000Z,30.82
2022-07-29T10:41:01.000Z,30.91
2022-07-29T10:42:01.000Z,30.93
2022-07-29T10:43:01.000Z,30.66
2022-07-29T10:44:01.000Z,30.51
2022-07-29T10:45:01.000Z,30.59
2022-07-29T10:45:01.000Z,30.59
2022-07-29T10:46:01.000Z,30.76
2022-07-29T10:46:01.000Z,30.76
2022-07-29T10:47:01.000Z,30.78
2022-07-29T10:47:01.000Z,30.78
2022-07-29T10:48:01.000Z,30.79
2022-07-29T10:48:01.000Z,30.79
2022-07-29T10:49:01.000Z,30.68
2022-07-29T10:49:01.000Z,30.68
2022-07-29T10:50:01.000Z,30.68
2022-07-29T10:51:01.000Z,30.78
2022-07-29T10:52:01.000Z,30.88
2022-07-29T10:53:01.000Z,31.01
2022-07-29T10:54:01.000Z,31.04
2022-07-29T10:55:01.000Z,31.09
2022-07-29T10:56:01.000Z,31.18
2022-07-29T10:57:01.000Z,31.28
2022-07-29T10:58:01.000Z,31.28
2022-07-29T10:59:00.000Z,31.20
2022-07-29T11:00:00.000Z,31.05
2022-07-29T11:01:00.000Z,31.12
2022-07-29T11:02:00.000Z,31.27
2022-07-29T11:03:00.000Z,31.34
2022-07-29T11:04:00.000Z,31.40
2022-07-29T11:05:00.000Z,31.12
2022-07-29T11:06:00.000Z,30.97
2022-07-29T11:07:00.000Z,31.09
2022-07-29T11:08:00.000Z,31.25
2022-07-29T11:09:00.000Z,31.34
2022-07-29T11:10:00.000Z,31.28
2022-07-29T11:11:00.000Z,31.10
2022-07-29T11:12:00.000Z,31.07
2022-07-29T11:13:00.000Z,31.20
2022-07-29T11:14:00.000Z,31.50
2022-07-29T11:15:00.000Z,31.74
2022-07-29T11:16:00.000Z,31.88
2022-07-29T11:17:00.000Z,32.03
2022-07-29T11:18:00.000Z,32.10
2022-07-29T11:19:00.000Z,32.10
2022-07-29T11:20:00.000Z,32.10
2022-07-29T11:21:00.000Z,31.99
2022-07-29T11:22:00.000Z,31.94
2022-07-29T11:23:00.000Z,31.78
2022-07-29T11:24:00.000Z,31.64
2022-07-29T11:25:00.000Z,31.40
2022-07-29T11:26:00.000Z,31.16
2022-07-29T11:27:00.000Z,31.27
2022-07-29T11:28:00.000Z,31.40
2022-07-29T11:29:00.000Z,31.45
2022-07-29T11:30:00.000Z,31.59
2022-07-29T11:30:00.000Z,31.59
2022-07-29T11:31:00.000Z,31.85
2022-07-29T11:31:00.000Z,31.85
2022-07-29T11:32:00.000Z,31.99
2022-07-29T11:32:00.000Z,31.99
2022-07-29T11:33:00.000Z,32.02
2022-07-29T11:33:00.000Z,32.02
2022-07-29T11:34:00.000Z,32.17
2022-07-29T11:34:00.000Z,32.17
2022-07-29T11:35:00.000Z,32.21
2022-07-29T11:36:00.000Z,32.21
2022-07-29T11:37:00.000Z,32.25
2022-07-29T11:38:00.000Z,32.35
2022-07-29T11:39:00.000Z,32.47
2022-07-29T11:40:00.000Z,32.51
2022-07-29T11:40:00.000Z,32.51
2022-07-29T11:41:00.000Z,32.69
2022-07-29T11:41:00.000Z,32.69
2022-07-29T11:42:00.000Z,32.69
2022-07-29T11:42:00.000Z,32.69
2022-07-29T11:43:00.000Z,32.50
2022-07-29T11:43:00.000Z,32.50
2022-07-29T11:44:00.000Z,32.53
2022-07-29T11:44:00.000Z,32.53
2022-07-29T11:45:00.000Z,32.49
2022-07-29T11:46:00.000Z,32.35
2022-07-29T11:47:00.000Z,32.32
2022-07-29T11:48:00.000Z,32.43
2022-07-29T11:49:00.000Z,32.61
2022-07-29T11:50:00.000Z,32.80
2022-07-29T11:51:00.000Z,32.98
2022-07-29T11:52:00.000Z,33.31